M/T Filos — 9HQB8 — position and weather

sailwx.info

Track history (hours):
 
Tides and Currents Weather Stations Pressure Air Temp Water Temp Dewpoint Dewpoint Depression Visibility Wind Speed Wind Dir Waves Ship Positions

M/T Filos

Last reported at 2015-Jul-06 12:09 UTC. Time now 2015-Jul-07 21:55 UTC.
Position N 49°52' W 003°15'.

Length 180 m; draft 7.4 m.

Type: Tanker. MMSI: 224561000.

Date/timePositionNaut miles runAvg speedWind from/ knotsBaromVisibWave heightAir tempDewpointWater temp
2015-Jul-06 12:09N 49°52' W 003°15'5 9.0
2015-Jul-06 11:33N 49°55' W 003°07'11 8.4
2015-Jul-06 10:15N 49°59' W 002°52'6 8.3
2015-Jul-06 09:31N 50°01' W 002°43'8 8.7
2015-Jul-06 08:33N 50°03' W 002°30'1010.0
2015-Jul-06 07:31N 50°06' W 002°14'9711.9
2015-Jul-05 23:23N 50°31' E 000°12'7 8.2
2015-Jul-05 22:33N 50°33' E 000°22'9 9.2
2015-Jul-05 21:34N 50°35' E 000°36'1111.1
2015-Jul-05 20:34N 50°43' E 000°49'1211.9
2015-Jul-05 19:31N 50°51' E 001°03'1111.5
2015-Jul-05 18:34N 50°59' E 001°16'1010.4
2015-Jul-05 17:34N 51°05' E 001°29'9 8.7
2015-Jul-05 16:34N 51°10' E 001°40'8 8.3
2015-Jul-05 15:33N 51°17' E 001°48'9 8.9
2015-Jul-05 14:33N 51°24' E 001°56'1010.4
2015-Jul-05 13:33N 51°33' E 002°06'4112.5
2015-Jul-05 10:14N 52°04' E 002°49'912.6
2015-Jul-05 09:34N 52°11' E 002°58'1212.4
2015-Jul-05 08:33N 52°21' E 003°11'1110.9
2015-Jul-05 07:33N 52°27' E 003°25'1110.7
2015-Jul-05 06:33N 52°31' E 003°41'1110.8
2015-Jul-05 05:34N 52°31' E 003°59'1110.7
2015-Jul-05 04:33N 52°31' E 004°17'1110.7
2015-Jul-05 03:33N 52°28' E 004°34'3 3.0
2015-Jul-05 02:33N 52°28' E 004°39'6 6.0
2015-Jul-05 01:33N 52°24' E 004°46'0 0.0
2015-Jul-05 00:25N 52°24' E 004°46'0 0.0
2015-Jul-04 23:31N 52°24' E 004°46'0 0.0
2015-Jul-04 22:28N 52°24' E 004°46'0 0.0
2015-Jul-04 21:31N 52°24' E 004°46'0 0.0
2015-Jul-04 20:25N 52°24' E 004°46'0 0.0
2015-Jul-04 19:31N 52°24' E 004°46'0 0.0
2015-Jul-04 18:31N 52°24' E 004°46'0 0.0
2015-Jul-04 17:28N 52°24' E 004°46'0 0.0
2015-Jul-04 16:31N 52°24' E 004°46'0 0.0
2015-Jul-04 15:31N 52°24' E 004°46'0 0.0
2015-Jul-04 14:31N 52°24' E 004°46'0 0.0
2015-Jul-04 13:28N 52°24' E 004°46'0 0.0
2015-Jul-04 12:28N 52°24' E 004°46'0 0.0
2015-Jul-04 11:31N 52°24' E 004°46'0 0.0
2015-Jul-04 10:28N 52°24' E 004°46'0 0.0
2015-Jul-04 09:28N 52°24' E 004°46'0 0.0
2015-Jul-04 08:31N 52°24' E 004°46'0 0.0
2015-Jul-04 07:31N 52°24' E 004°46'0 0.0
2015-Jul-04 06:28N 52°24' E 004°46'0 0.0
2015-Jul-04 05:31N 52°24' E 004°46'0 0.0
2015-Jul-04 04:31N 52°24' E 004°46'0 0.0
2015-Jul-04 03:28N 52°24' E 004°46'0 0.0
2015-Jul-04 02:31N 52°24' E 004°46'0 0.0
2015-Jul-04 01:31N 52°24' E 004°46'0 0.0
2015-Jul-04 00:31N 52°24' E 004°46'0 0.2
2015-Jul-03 23:34N 52°24' E 004°47'7 7.1
2015-Jul-03 22:33N 52°28' E 004°37'0 0.3
2015-Jul-03 21:33N 52°28' E 004°36'8 8.4
2015-Jul-03 20:33N 52°28' E 004°22'1111.3
2015-Jul-03 19:33N 52°28' E 004°04'1211.5
2015-Jul-03 18:33N 52°26' E 003°45'1211.6
2015-Jul-03 17:34N 52°21' E 003°28'1312.4
2015-Jul-03 16:33N 52°12' E 003°14'1412.9
2015-Jul-03 15:26N 52°01' E 002°58'1112.9
2015-Jul-03 14:33N 51°53' E 002°45'1613.1
2015-Jul-03 13:22N 51°42' E 002°28'1012.6
2015-Jul-03 12:34N 51°34' E 002°17'1312.2
2015-Jul-03 11:29N 51°24' E 002°03'1010.9
2015-Jul-03 10:34N 51°27' E 001°47'10 9.9
2015-Jul-03 09:33N 51°27' E 001°31'10 9.8
2015-Jul-03 08:33N 51°29' E 001°16'1211.4
2015-Jul-03 07:32N 51°29' E 000°57'1212.5
2015-Jul-03 06:33N 51°30' E 000°38'1111.2
2015-Jul-03 05:33N 51°27' E 000°20'2 1.9
2015-Jul-03 04:34N 51°28' E 000°18'0 0.0
2015-Jul-03 03:33N 51°28' E 000°18'0 0.0
2015-Jul-03 02:33N 51°28' E 000°18'0 0.0
2015-Jul-03 01:33N 51°28' E 000°18'0 0.0
2015-Jul-03 00:33N 51°28' E 000°18'0 0.0
2015-Jul-02 23:33N 51°28' E 000°18'0 0.0
2015-Jul-02 22:33N 51°28' E 000°18'0 0.0
2015-Jul-02 21:33N 51°28' E 000°18'0 0.0
2015-Jul-02 20:33N 51°28' E 000°18'0 0.0
2015-Jul-02 19:34N 51°28' E 000°18'0 0.0
2015-Jul-02 18:33N 51°28' E 000°18'0 0.0
2015-Jul-02 17:33N 51°28' E 000°18'0 0.0
2015-Jul-02 16:33N 51°28' E 000°18'0 0.0
2015-Jul-02 15:33N 51°28' E 000°18'0 0.0
2015-Jul-02 14:34N 51°28' E 000°18'0 0.0
2015-Jul-02 13:33N 51°28' E 000°18'0 0.0
2015-Jul-02 12:33N 51°28' E 000°18'3 3.5
2015-Jul-02 11:33N 51°27' E 000°23'1111.5
2015-Jul-02 10:33N 51°30' E 000°41'1312.8
2015-Jul-02 09:33N 51°30' E 001°02'1312.6
2015-Jul-02 08:33N 51°29' E 001°22'7 7.0
2015-Jul-02 07:34N 51°28' E 001°33'3 3.2
2015-Jul-02 06:31N 51°31' E 001°31'6 5.7
2015-Jul-02 05:33N 51°32' E 001°40'1110.8
2015-Jul-02 04:33N 51°32' E 001°57'1010.1
2015-Jul-02 03:33N 51°38' E 002°12'10 9.9
2015-Jul-02 02:33N 51°45' E 002°23'39 9.6
2015-Jul-01 22:33N 52°03' E 003°18'1312.4
2015-Jul-01 21:29N 52°03' E 003°39'1112.0
2015-Jul-01 20:33N 52°01' E 003°57'1110.8
2015-Jul-01 19:33N 51°56' E 004°12'5 2.0
2015-Jul-01 17:06N 51°53' E 004°18'0 0.0
2015-Jul-01 16:24N 51°53' E 004°18'0 0.0
2015-Jul-01 15:30N 51°53' E 004°18'0 0.0
2015-Jul-01 14:30N 51°53' E 004°18'0 0.0
2015-Jul-01 13:33N 51°53' E 004°18'0 0.0
2015-Jul-01 12:30N 51°53' E 004°18'0 0.0
2015-Jul-01 11:33N 51°53' E 004°18'0 0.0
2015-Jul-01 10:30N 51°53' E 004°18'0 0.0
2015-Jul-01 09:24N 51°53' E 004°18'0 0.0
2015-Jul-01 08:30N 51°53' E 004°18'0 0.0
2015-Jul-01 07:24N 51°53' E 004°18'0 0.0
2015-Jul-01 06:33N 51°53' E 004°18'0 0.0
2015-Jul-01 05:30N 51°53' E 004°18'0 0.0
2015-Jul-01 04:33N 51°53' E 004°18'0 0.0
2015-Jul-01 03:33N 51°53' E 004°18'0 0.0
2015-Jul-01 02:24N 51°53' E 004°18'0 0.0
2015-Jul-01 01:24N 51°53' E 004°18'0 0.0
2015-Jul-01 00:33N 51°53' E 004°18'0 0.0
2015-Jun-30 23:18N 51°53' E 004°18'0 0.0
2015-Jun-30 22:12N 51°53' E 004°18'0 0.0
2015-Jun-30 21:18N 51°53' E 004°18'0 0.0
2015-Jun-30 20:30N 51°53' E 004°18'0 0.0
2015-Jun-30 19:33N 51°53' E 004°18'0 0.0
2015-Jun-30 18:33N 51°53' E 004°18'0 0.0
2015-Jun-30 17:24N 51°53' E 004°18'0 0.0
2015-Jun-30 16:30N 51°53' E 004°18'0 0.0
2015-Jun-30 15:33N 51°53' E 004°18'0 0.0
2015-Jun-30 14:27N 51°53' E 004°18'0 0.0
2015-Jun-30 13:33N 51°53' E 004°18'0 0.0
2015-Jun-30 12:21N 51°53' E 004°18'0 0.0
2015-Jun-30 11:21N 51°53' E 004°18'2 3.0
2015-Jun-30 10:33N 51°54' E 004°15'8 8.5
2015-Jun-30 09:34N 51°59' E 004°04'9 9.1
2015-Jun-30 08:34N 52°00' E 003°49'9 8.5
2015-Jun-30 07:34N 52°07' E 003°41'0 0.1
2015-Jun-30 06:32N 52°07' E 003°41'0 0.0
2015-Jun-30 05:32N 52°07' E 003°41'0 0.0
2015-Jun-30 04:32N 52°07' E 003°41'0 0.1
2015-Jun-30 03:32N 52°07' E 003°41'0 0.0
2015-Jun-30 02:32N 52°08' E 003°41'0 0.0
2015-Jun-30 01:26N 52°08' E 003°41'0 0.0
2015-Jun-30 00:32N 52°08' E 003°41'0 0.0
2015-Jun-29 23:32N 52°08' E 003°41'0 0.0
2015-Jun-29 22:32N 52°07' E 003°41'0 0.1
2015-Jun-29 21:33N 52°07' E 003°41'0 0.0
2015-Jun-29 20:32N 52°07' E 003°41'0 0.0
2015-Jun-29 19:32N 52°07' E 003°41'0 0.0
2015-Jun-29 18:32N 52°07' E 003°41'0 0.0
2015-Jun-29 17:32N 52°07' E 003°41'0 0.0
2015-Jun-29 16:32N 52°07' E 003°41'0 0.1
2015-Jun-29 15:32N 52°07' E 003°41'0 0.0
2015-Jun-29 14:32N 52°07' E 003°41'0 0.0
2015-Jun-29 13:32N 52°08' E 003°41'0 0.0
2015-Jun-29 12:29N 52°08' E 003°41'0 0.0
2015-Jun-29 11:32N 52°08' E 003°41'0 0.0
2015-Jun-29 10:14N 52°07' E 003°41'0 0.1
2015-Jun-29 09:32N 52°07' E 003°41'0 0.0
2015-Jun-29 08:32N 52°07' E 003°41'0 0.0
2015-Jun-29 07:32N 52°07' E 003°41'0 0.0
2015-Jun-29 06:32N 52°07' E 003°41'0 0.0
2015-Jun-29 05:29N 52°07' E 003°41'0 0.1
2015-Jun-29 04:32N 52°07' E 003°41'0 0.1
2015-Jun-29 03:20N 52°07' E 003°41'0 0.0
2015-Jun-29 02:32N 52°07' E 003°41'0 0.0
2015-Jun-29 01:32N 52°07' E 003°41'0 0.0
2015-Jun-29 00:32N 52°07' E 003°41'0 0.0
2015-Jun-28 23:32N 52°08' E 003°41'0 0.0
2015-Jun-28 22:32N 52°08' E 003°41'0 0.0
2015-Jun-28 21:32N 52°08' E 003°41'0 0.1
2015-Jun-28 20:32N 52°07' E 003°41'0 0.0
2015-Jun-28 19:26N 52°07' E 003°41'0 0.0
2015-Jun-28 18:26N 52°07' E 003°41'0 0.0
2015-Jun-28 17:32N 52°07' E 003°41'0 0.0
2015-Jun-28 16:32N 52°07' E 003°41'0 0.1
2015-Jun-28 15:26N 52°07' E 003°41'0 0.1
2015-Jun-28 14:32N 52°08' E 003°41'0 0.0
2015-Jun-28 13:26N 52°08' E 003°41'0 0.0
2015-Jun-28 12:26N 52°08' E 003°41'0 0.0
2015-Jun-28 11:29N 52°08' E 003°41'0 0.0
2015-Jun-28 10:23N 52°08' E 003°41'0 0.0
2015-Jun-28 09:32N 52°08' E 003°41'0 0.0
2015-Jun-28 08:23N 52°08' E 003°41'0 0.1
2015-Jun-28 07:32N 52°07' E 003°41'0 0.0
2015-Jun-28 06:29N 52°07' E 003°41'0 0.0
2015-Jun-28 05:26N 52°07' E 003°41'0 0.1
2015-Jun-28 04:29N 52°07' E 003°41'0 0.1
2015-Jun-28 03:32N 52°08' E 003°41'0 0.0
2015-Jun-28 02:32N 52°08' E 003°41'0 0.0
2015-Jun-28 01:26N 52°08' E 003°41'0 0.0
2015-Jun-28 00:32N 52°08' E 003°41'0 0.0
2015-Jun-27 23:20N 52°08' E 003°41'0 0.0
2015-Jun-27 22:32N 52°08' E 003°41'0 0.0
2015-Jun-27 21:32N 52°08' E 003°41'0 0.1
2015-Jun-27 20:32N 52°07' E 003°41'8 8.5
2015-Jun-27 19:33N 52°15' E 003°47'1312.6
2015-Jun-27 18:33N 52°27' E 003°51'1312.8
2015-Jun-27 17:33N 52°40' E 003°55'1312.9
2015-Jun-27 16:33N 52°53' E 003°59'1411.6
2015-Jun-27 15:19N 53°04' E 004°13'1211.0
2015-Jun-27 14:13N 53°13' E 004°27'19 9.8
2015-Jun-27 12:16N 53°30' E 004°43'810.8
2015-Jun-27 11:33N 53°32' E 004°55'1111.3
2015-Jun-27 10:33N 53°36' E 005°13'1212.0
2015-Jun-27 09:33N 53°40' E 005°32'1212.1
2015-Jun-27 08:33N 53°44' E 005°52'1211.9
2015-Jun-27 07:31N 53°47' E 006°12'1211.7
2015-Jun-27 06:29N 53°51' E 006°31'2410.7
2015-Jun-27 04:12N 53°57' E 007°11'1810.6
2015-Jun-27 02:27N 54°02' E 007°41'1011.6
2015-Jun-27 01:33N 54°02' E 007°59'1212.1
2015-Jun-27 00:33N 53°60' E 008°19'1414.1
2015-Jun-26 23:34N 53°54' E 008°41'1312.9
2015-Jun-26 22:34N 53°52' E 009°03'4 4.5
2015-Jun-26 21:33N 53°54' E 009°10'8 7.7
2015-Jun-26 20:33N 54°00' E 009°18'9 8.4
2015-Jun-26 19:32N 54°09' E 009°21'10 8.3
2015-Jun-26 18:17N 54°14' E 009°36'6 7.6
2015-Jun-26 17:33N 54°18' E 009°42'7 7.4
2015-Jun-26 16:34N 54°21' E 009°53'4 4.4
2015-Jun-26 15:34N 54°21' E 010°01'5 4.5
2015-Jun-26 14:33N 54°22' E 010°08'1 1.1
2015-Jun-26 13:34N 54°22' E 010°10'2 2.1
2015-Jun-26 12:33N 54°24' E 010°12'  
Track history (hours):
 
Tides and Currents Weather Stations Pressure Air Temp Water Temp Dewpoint Dewpoint Depression Visibility Wind Speed Wind Dir Waves Ship Positions

M/T Filos

Last reported at 2015-Jul-06 12:09 UTC. Time now 2015-Jul-07 21:55 UTC.
Position N 49°52' W 003°15'.

Length 180 m; draft 7.4 m.

Type: Tanker. MMSI: 224561000.

Date/timePositionNaut miles runAvg speedWind from/ knotsBaromVisibWave heightAir tempDewpointWater temp
2015-Jul-06 12:09N 49°52' W 003°15'5 9.0
2015-Jul-06 11:33N 49°55' W 003°07'11 8.4
2015-Jul-06 10:15N 49°59' W 002°52'6 8.3
2015-Jul-06 09:31N 50°01' W 002°43'8 8.7
2015-Jul-06 08:33N 50°03' W 002°30'1010.0
2015-Jul-06 07:31N 50°06' W 002°14'9711.9
2015-Jul-05 23:23N 50°31' E 000°12'7 8.2
2015-Jul-05 22:33N 50°33' E 000°22'9 9.2
2015-Jul-05 21:34N 50°35' E 000°36'1111.1
2015-Jul-05 20:34N 50°43' E 000°49'1211.9
2015-Jul-05 19:31N 50°51' E 001°03'1111.5
2015-Jul-05 18:34N 50°59' E 001°16'1010.4
2015-Jul-05 17:34N 51°05' E 001°29'9 8.7
2015-Jul-05 16:34N 51°10' E 001°40'8 8.3
2015-Jul-05 15:33N 51°17' E 001°48'9 8.9
2015-Jul-05 14:33N 51°24' E 001°56'1010.4
2015-Jul-05 13:33N 51°33' E 002°06'4112.5
2015-Jul-05 10:14N 52°04' E 002°49'912.6
2015-Jul-05 09:34N 52°11' E 002°58'1212.4
2015-Jul-05 08:33N 52°21' E 003°11'1110.9
2015-Jul-05 07:33N 52°27' E 003°25'1110.7
2015-Jul-05 06:33N 52°31' E 003°41'1110.8
2015-Jul-05 05:34N 52°31' E 003°59'1110.7
2015-Jul-05 04:33N 52°31' E 004°17'1110.7
2015-Jul-05 03:33N 52°28' E 004°34'3 3.0
2015-Jul-05 02:33N 52°28' E 004°39'6 6.0
2015-Jul-05 01:33N 52°24' E 004°46'0 0.0
2015-Jul-05 00:25N 52°24' E 004°46'0 0.0
2015-Jul-04 23:31N 52°24' E 004°46'0 0.0
2015-Jul-04 22:28N 52°24' E 004°46'0 0.0
2015-Jul-04 21:31N 52°24' E 004°46'0 0.0
2015-Jul-04 20:25N 52°24' E 004°46'0 0.0
2015-Jul-04 19:31N 52°24' E 004°46'0 0.0
2015-Jul-04 18:31N 52°24' E 004°46'0 0.0
2015-Jul-04 17:28N 52°24' E 004°46'0 0.0
2015-Jul-04 16:31N 52°24' E 004°46'0 0.0
2015-Jul-04 15:31N 52°24' E 004°46'0 0.0
2015-Jul-04 14:31N 52°24' E 004°46'0 0.0
2015-Jul-04 13:28N 52°24' E 004°46'0 0.0
2015-Jul-04 12:28N 52°24' E 004°46'0 0.0
2015-Jul-04 11:31N 52°24' E 004°46'0 0.0
2015-Jul-04 10:28N 52°24' E 004°46'0 0.0
2015-Jul-04 09:28N 52°24' E 004°46'0 0.0
2015-Jul-04 08:31N 52°24' E 004°46'0 0.0
2015-Jul-04 07:31N 52°24' E 004°46'0 0.0
2015-Jul-04 06:28N 52°24' E 004°46'0 0.0
2015-Jul-04 05:31N 52°24' E 004°46'0 0.0
2015-Jul-04 04:31N 52°24' E 004°46'0 0.0
2015-Jul-04 03:28N 52°24' E 004°46'0 0.0
2015-Jul-04 02:31N 52°24' E 004°46'0 0.0
2015-Jul-04 01:31N 52°24' E 004°46'0 0.0
2015-Jul-04 00:31N 52°24' E 004°46'0 0.2
2015-Jul-03 23:34N 52°24' E 004°47'7 7.1
2015-Jul-03 22:33N 52°28' E 004°37'0 0.3
2015-Jul-03 21:33N 52°28' E 004°36'8 8.4
2015-Jul-03 20:33N 52°28' E 004°22'1111.3
2015-Jul-03 19:33N 52°28' E 004°04'1211.5
2015-Jul-03 18:33N 52°26' E 003°45'1211.6
2015-Jul-03 17:34N 52°21' E 003°28'1312.4
2015-Jul-03 16:33N 52°12' E 003°14'1412.9
2015-Jul-03 15:26N 52°01' E 002°58'1112.9
2015-Jul-03 14:33N 51°53' E 002°45'1613.1
2015-Jul-03 13:22N 51°42' E 002°28'1012.6
2015-Jul-03 12:34N 51°34' E 002°17'1312.2
2015-Jul-03 11:29N 51°24' E 002°03'1010.9
2015-Jul-03 10:34N 51°27' E 001°47'10 9.9
2015-Jul-03 09:33N 51°27' E 001°31'10 9.8
2015-Jul-03 08:33N 51°29' E 001°16'1211.4
2015-Jul-03 07:32N 51°29' E 000°57'1212.5
2015-Jul-03 06:33N 51°30' E 000°38'1111.2
2015-Jul-03 05:33N 51°27' E 000°20'2 1.9
2015-Jul-03 04:34N 51°28' E 000°18'0 0.0
2015-Jul-03 03:33N 51°28' E 000°18'0 0.0
2015-Jul-03 02:33N 51°28' E 000°18'0 0.0
2015-Jul-03 01:33N 51°28' E 000°18'0 0.0
2015-Jul-03 00:33N 51°28' E 000°18'0 0.0
2015-Jul-02 23:33N 51°28' E 000°18'0 0.0
2015-Jul-02 22:33N 51°28' E 000°18'0 0.0
2015-Jul-02 21:33N 51°28' E 000°18'0 0.0
2015-Jul-02 20:33N 51°28' E 000°18'0 0.0
2015-Jul-02 19:34N 51°28' E 000°18'0 0.0
2015-Jul-02 18:33N 51°28' E 000°18'0 0.0
2015-Jul-02 17:33N 51°28' E 000°18'0 0.0
2015-Jul-02 16:33N 51°28' E 000°18'0 0.0
2015-Jul-02 15:33N 51°28' E 000°18'0 0.0
2015-Jul-02 14:34N 51°28' E 000°18'0 0.0
2015-Jul-02 13:33N 51°28' E 000°18'0 0.0
2015-Jul-02 12:33N 51°28' E 000°18'3 3.5
2015-Jul-02 11:33N 51°27' E 000°23'1111.5
2015-Jul-02 10:33N 51°30' E 000°41'1312.8
2015-Jul-02 09:33N 51°30' E 001°02'1312.6
2015-Jul-02 08:33N 51°29' E 001°22'7 7.0
2015-Jul-02 07:34N 51°28' E 001°33'3 3.2
2015-Jul-02 06:31N 51°31' E 001°31'6 5.7
2015-Jul-02 05:33N 51°32' E 001°40'1110.8
2015-Jul-02 04:33N 51°32' E 001°57'1010.1
2015-Jul-02 03:33N 51°38' E 002°12'10 9.9
2015-Jul-02 02:33N 51°45' E 002°23'39 9.6
2015-Jul-01 22:33N 52°03' E 003°18'1312.4
2015-Jul-01 21:29N 52°03' E 003°39'1112.0
2015-Jul-01 20:33N 52°01' E 003°57'1110.8
2015-Jul-01 19:33N 51°56' E 004°12'5 2.0
2015-Jul-01 17:06N 51°53' E 004°18'0 0.0
2015-Jul-01 16:24N 51°53' E 004°18'0 0.0
2015-Jul-01 15:30N 51°53' E 004°18'0 0.0
2015-Jul-01 14:30N 51°53' E 004°18'0 0.0
2015-Jul-01 13:33N 51°53' E 004°18'0 0.0
2015-Jul-01 12:30N 51°53' E 004°18'0 0.0
2015-Jul-01 11:33N 51°53' E 004°18'0 0.0
2015-Jul-01 10:30N 51°53' E 004°18'0 0.0
2015-Jul-01 09:24N 51°53' E 004°18'0 0.0
2015-Jul-01 08:30N 51°53' E 004°18'0 0.0
2015-Jul-01 07:24N 51°53' E 004°18'0 0.0
2015-Jul-01 06:33N 51°53' E 004°18'0 0.0
2015-Jul-01 05:30N 51°53' E 004°18'0 0.0
2015-Jul-01 04:33N 51°53' E 004°18'0 0.0
2015-Jul-01 03:33N 51°53' E 004°18'0 0.0
2015-Jul-01 02:24N 51°53' E 004°18'0 0.0
2015-Jul-01 01:24N 51°53' E 004°18'0 0.0
2015-Jul-01 00:33N 51°53' E 004°18'0 0.0
2015-Jun-30 23:18N 51°53' E 004°18'0 0.0
2015-Jun-30 22:12N 51°53' E 004°18'0 0.0
2015-Jun-30 21:18N 51°53' E 004°18'0 0.0
2015-Jun-30 20:30N 51°53' E 004°18'0 0.0
2015-Jun-30 19:33N 51°53' E 004°18'0 0.0
2015-Jun-30 18:33N 51°53' E 004°18'0 0.0
2015-Jun-30 17:24N 51°53' E 004°18'0 0.0
2015-Jun-30 16:30N 51°53' E 004°18'0 0.0
2015-Jun-30 15:33N 51°53' E 004°18'0 0.0
2015-Jun-30 14:27N 51°53' E 004°18'0 0.0
2015-Jun-30 13:33N 51°53' E 004°18'0 0.0
2015-Jun-30 12:21N 51°53' E 004°18'0 0.0
2015-Jun-30 11:21N 51°53' E 004°18'2 3.0
2015-Jun-30 10:33N 51°54' E 004°15'8 8.5
2015-Jun-30 09:34N 51°59' E 004°04'9 9.1
2015-Jun-30 08:34N 52°00' E 003°49'9 8.5
2015-Jun-30 07:34N 52°07' E 003°41'0 0.1
2015-Jun-30 06:32N 52°07' E 003°41'0 0.0
2015-Jun-30 05:32N 52°07' E 003°41'0 0.0
2015-Jun-30 04:32N 52°07' E 003°41'0 0.1
2015-Jun-30 03:32N 52°07' E 003°41'0 0.0
2015-Jun-30 02:32N 52°08' E 003°41'0 0.0
2015-Jun-30 01:26N 52°08' E 003°41'0 0.0
2015-Jun-30 00:32N 52°08' E 003°41'0 0.0
2015-Jun-29 23:32N 52°08' E 003°41'0 0.0
2015-Jun-29 22:32N 52°07' E 003°41'0 0.1
2015-Jun-29 21:33N 52°07' E 003°41'0 0.0
2015-Jun-29 20:32N 52°07' E 003°41'0 0.0
2015-Jun-29 19:32N 52°07' E 003°41'0 0.0
2015-Jun-29 18:32N 52°07' E 003°41'0 0.0
2015-Jun-29 17:32N 52°07' E 003°41'0 0.0
2015-Jun-29 16:32N 52°07' E 003°41'0 0.1
2015-Jun-29 15:32N 52°07' E 003°41'0 0.0
2015-Jun-29 14:32N 52°07' E 003°41'0 0.0
2015-Jun-29 13:32N 52°08' E 003°41'0 0.0
2015-Jun-29 12:29N 52°08' E 003°41'0 0.0
2015-Jun-29 11:32N 52°08' E 003°41'0 0.0
2015-Jun-29 10:14N 52°07' E 003°41'0 0.1
2015-Jun-29 09:32N 52°07' E 003°41'0 0.0
2015-Jun-29 08:32N 52°07' E 003°41'0 0.0
2015-Jun-29 07:32N 52°07' E 003°41'0 0.0
2015-Jun-29 06:32N 52°07' E 003°41'0 0.0
2015-Jun-29 05:29N 52°07' E 003°41'0 0.1
2015-Jun-29 04:32N 52°07' E 003°41'0 0.1
2015-Jun-29 03:20N 52°07' E 003°41'0 0.0
2015-Jun-29 02:32N 52°07' E 003°41'0 0.0
2015-Jun-29 01:32N 52°07' E 003°41'0 0.0
2015-Jun-29 00:32N 52°07' E 003°41'0 0.0
2015-Jun-28 23:32N 52°08' E 003°41'0 0.0
2015-Jun-28 22:32N 52°08' E 003°41'0 0.0
2015-Jun-28 21:32N 52°08' E 003°41'0 0.1
2015-Jun-28 20:32N 52°07' E 003°41'0 0.0
2015-Jun-28 19:26N 52°07' E 003°41'0 0.0
2015-Jun-28 18:26N 52°07' E 003°41'0 0.0
2015-Jun-28 17:32N 52°07' E 003°41'0 0.0
2015-Jun-28 16:32N 52°07' E 003°41'0 0.1
2015-Jun-28 15:26N 52°07' E 003°41'0 0.1
2015-Jun-28 14:32N 52°08' E 003°41'0 0.0
2015-Jun-28 13:26N 52°08' E 003°41'0 0.0
2015-Jun-28 12:26N 52°08' E 003°41'0 0.0
2015-Jun-28 11:29N 52°08' E 003°41'0 0.0
2015-Jun-28 10:23N 52°08' E 003°41'0 0.0
2015-Jun-28 09:32N 52°08' E 003°41'0 0.0
2015-Jun-28 08:23N 52°08' E 003°41'0 0.1
2015-Jun-28 07:32N 52°07' E 003°41'0 0.0
2015-Jun-28 06:29N 52°07' E 003°41'0 0.0
2015-Jun-28 05:26N 52°07' E 003°41'0 0.1
2015-Jun-28 04:29N 52°07' E 003°41'0 0.1
2015-Jun-28 03:32N 52°08' E 003°41'0 0.0
2015-Jun-28 02:32N 52°08' E 003°41'0 0.0
2015-Jun-28 01:26N 52°08' E 003°41'0 0.0
2015-Jun-28 00:32N 52°08' E 003°41'0 0.0
2015-Jun-27 23:20N 52°08' E 003°41'0 0.0
2015-Jun-27 22:32N 52°08' E 003°41'0 0.0
2015-Jun-27 21:32N 52°08' E 003°41'0 0.1
2015-Jun-27 20:32N 52°07' E 003°41'8 8.5
2015-Jun-27 19:33N 52°15' E 003°47'1312.6
2015-Jun-27 18:33N 52°27' E 003°51'1312.8
2015-Jun-27 17:33N 52°40' E 003°55'1312.9
2015-Jun-27 16:33N 52°53' E 003°59'1411.6
2015-Jun-27 15:19N 53°04' E 004°13'1211.0
2015-Jun-27 14:13N 53°13' E 004°27'19 9.8
2015-Jun-27 12:16N 53°30' E 004°43'810.8
2015-Jun-27 11:33N 53°32' E 004°55'1111.3
2015-Jun-27 10:33N 53°36' E 005°13'1212.0
2015-Jun-27 09:33N 53°40' E 005°32'1212.1
2015-Jun-27 08:33N 53°44' E 005°52'1211.9
2015-Jun-27 07:31N 53°47' E 006°12'1211.7
2015-Jun-27 06:29N 53°51' E 006°31'2410.7
2015-Jun-27 04:12N 53°57' E 007°11'1810.6
2015-Jun-27 02:27N 54°02' E 007°41'1011.6
2015-Jun-27 01:33N 54°02' E 007°59'1212.1
2015-Jun-27 00:33N 53°60' E 008°19'1414.1
2015-Jun-26 23:34N 53°54' E 008°41'1312.9
2015-Jun-26 22:34N 53°52' E 009°03'4 4.5
2015-Jun-26 21:33N 53°54' E 009°10'8 7.7
2015-Jun-26 20:33N 54°00' E 009°18'9 8.4
2015-Jun-26 19:32N 54°09' E 009°21'10 8.3
2015-Jun-26 18:17N 54°14' E 009°36'6 7.6
2015-Jun-26 17:33N 54°18' E 009°42'7 7.4
2015-Jun-26 16:34N 54°21' E 009°53'4 4.4
2015-Jun-26 15:34N 54°21' E 010°01'5 4.5
2015-Jun-26 14:33N 54°22' E 010°08'1 1.1
2015-Jun-26 13:34N 54°22' E 010°10'2 2.1
2015-Jun-26 12:33N 54°24' E 010°12'  

Dump ship's entire track history